Time;durP1;ratioP1;P1;durP2;ratioP2;P2;SDS_P1;SDS_P2;PMS_P1;PMS_P2;Temp;Humidity;BMP_temperature;BMP_pressure;BME280_temperature;BME280_humidity;BME280_pressure;Samples;Min_cycle;Max_cycle;Signal;HPM_P1;HPM_P2
2023/11/06 00:00:31;;;;;;;2.33;1.53;;;9.70;98.00;;;;;;5009664;28;20455;-67
2023/11/06 00:02:58;;;;;;;2.40;1.50;;;9.70;98.00;;;;;;5010864;28;20455;-67
2023/11/06 00:05:25;;;;;;;1.40;1.27;;;9.70;98.00;;;;;;5011154;28;20460;-67
2023/11/06 00:07:54;;;;;;;2.37;1.47;;;9.70;98.00;;;;;;5011239;28;20474;-67
2023/11/06 00:10:21;;;;;;;1.57;1.40;;;9.70;98.00;;;;;;5014840;28;20458;-67
2023/11/06 00:12:48;;;;;;;5.23;1.57;;;9.80;98.00;;;;;;5014462;28;20527;-67
2023/11/06 00:15:20;;;;;;;2.10;1.50;;;9.90;98.00;;;;;;5014619;28;20486;-67
2023/11/06 00:17:47;;;;;;;2.50;1.40;;;9.90;98.00;;;;;;5014549;28;20459;-67
2023/11/06 00:20:16;;;;;;;2.47;1.40;;;10.00;98.00;;;;;;5014599;28;20456;-67
2023/11/06 00:22:43;;;;;;;1.30;1.20;;;10.00;98.00;;;;;;5014583;28;20946;-67
2023/11/06 00:25:12;;;;;;;5.97;1.60;;;10.00;98.00;;;;;;5014826;28;20521;-67
2023/11/06 00:27:39;;;;;;;4.83;1.70;;;10.00;98.00;;;;;;5014585;28;20972;-67
2023/11/06 00:30:08;;;;;;;1.50;1.30;;;10.00;98.00;;;;;;5014289;28;20533;-67
2023/11/06 00:32:36;;;;;;;1.80;1.30;;;10.00;98.00;;;;;;5014526;28;20566;-67
2023/11/06 00:35:04;;;;;;;3.67;1.30;;;10.00;98.00;;;;;;5014216;28;20497;-67
2023/11/06 00:37:34;;;;;;;5.00;1.50;;;10.00;98.00;;;;;;5013238;28;20463;-67
2023/11/06 00:40:04;;;;;;;2.50;1.47;;;10.00;98.00;;;;;;5014008;28;20458;-67
2023/11/06 00:42:32;;;;;;;2.23;1.40;;;10.00;98.00;;;;;;5014370;28;20462;-67
2023/11/06 00:45:02;;;;;;;1.77;1.30;;;10.00;98.00;;;;;;5012907;28;20502;-67
2023/11/06 00:47:29;;;;;;;2.07;1.37;;;10.20;98.00;;;;;;5014215;28;20463;-67
2023/11/06 00:49:57;;;;;;;2.60;1.40;;;10.20;98.00;;;;;;5012956;28;20454;-67
2023/11/06 00:52:25;;;;;;;1.93;1.30;;;10.20;98.00;;;;;;5014102;28;20455;-67
2023/11/06 00:54:52;;;;;;;6.03;1.80;;;10.10;98.00;;;;;;5014004;28;20549;-67
2023/11/06 00:57:19;;;;;;;1.80;1.37;;;10.20;98.00;;;;;;5013967;28;20941;-67
2023/11/06 00:59:47;;;;;;;1.93;1.53;;;10.20;98.00;;;;;;5013773;28;20455;-67
2023/11/06 01:02:14;;;;;;;2.10;1.50;;;10.20;98.00;;;;;;5013792;28;20466;-67
2023/11/06 01:04:41;;;;;;;1.77;1.40;;;10.30;98.00;;;;;;5013859;28;20961;-67
2023/11/06 01:07:08;;;;;;;1.83;1.43;;;10.40;98.00;;;;;;5013620;28;20456;-67
2023/11/06 01:09:35;;;;;;;5.47;1.77;;;10.40;98.00;;;;;;5013677;28;20448;-67
2023/11/06 01:12:03;;;;;;;4.10;1.67;;;10.30;98.00;;;;;;5013903;28;20461;-67
2023/11/06 01:14:30;;;;;;;2.37;1.30;;;10.20;98.00;;;;;;5013733;28;20568;-67
2023/11/06 01:16:58;;;;;;;2.37;1.40;;;10.30;98.00;;;;;;5013713;28;20454;-67
2023/11/06 01:19:40;;;;;;;2.70;1.60;;;10.20;98.00;;;;;;5013368;28;20983;-67
2023/11/06 01:22:07;;;;;;;1.60;1.27;;;10.30;98.00;;;;;;5013866;28;20462;-67
2023/11/06 01:24:34;;;;;;;2.93;1.90;;;10.20;98.00;;;;;;5013821;28;20935;-67
2023/11/06 01:27:01;;;;;;;3.60;1.33;;;10.20;98.00;;;;;;5013414;28;20489;-67
2023/11/06 01:29:28;;;;;;;3.60;1.50;;;10.20;98.00;;;;;;5013588;28;20476;-67
2023/11/06 01:31:56;;;;;;;2.10;1.40;;;10.20;98.00;;;;;;5013454;28;20453;-67
2023/11/06 01:34:24;;;;;;;4.40;1.40;;;10.20;98.00;;;;;;5011951;28;20493;-67
2023/11/06 01:36:51;;;;;;;2.90;1.40;;;10.20;98.00;;;;;;5013432;28;20463;-67
2023/11/06 01:39:18;;;;;;;1.80;1.40;;;10.20;98.00;;;;;;5013022;28;20467;-67
2023/11/06 01:41:46;;;;;;;2.93;1.37;;;10.20;98.00;;;;;;5013115;28;20513;-67
2023/11/06 01:44:13;;;;;;;4.30;1.40;;;10.10;98.00;;;;;;5012767;28;20461;-67
2023/11/06 01:46:41;;;;;;;1.30;1.30;;;10.10;98.00;;;;;;5013075;28;20463;-67
2023/11/06 01:49:08;;;;;;;1.93;1.33;;;10.10;98.00;;;;;;5013212;28;20458;-67
2023/11/06 01:51:41;;;;;;;3.93;1.63;;;10.00;98.00;;;;;;5012857;28;20462;-67
2023/11/06 01:54:10;;;;;;;3.93;1.50;;;10.00;98.00;;;;;;5012856;28;21149;-67
2023/11/06 01:56:38;;;;;;;7.87;1.60;;;10.00;98.00;;;;;;5012815;28;20474;-67
2023/11/06 01:59:06;;;;;;;3.10;1.30;;;10.00;98.00;;;;;;5012830;28;20452;-67
2023/11/06 02:01:38;;;;;;;1.90;1.47;;;9.90;98.00;;;;;;5012856;28;20460;-67
2023/11/06 02:04:13;;;;;;;1.50;1.30;;;9.90;98.00;;;;;;5012626;28;20851;-67
2023/11/06 02:06:49;;;;;;;1.57;1.30;;;9.90;98.00;;;;;;5012809;28;20450;-67
2023/11/06 02:09:18;;;;;;;2.70;1.40;;;9.90;98.00;;;;;;5012690;28;20455;-67
2023/11/06 02:11:45;;;;;;;1.47;1.23;;;10.00;98.00;;;;;;5012607;28;20452;-67
2023/11/06 02:14:12;;;;;;;2.10;1.13;;;9.90;98.00;;;;;;5012389;28;21004;-67
2023/11/06 02:16:39;;;;;;;3.73;1.30;;;9.90;98.00;;;;;;5012364;28;20463;-67
2023/11/06 02:19:07;;;;;;;2.10;1.40;;;10.00;98.00;;;;;;5012442;28;20456;-67
2023/11/06 02:21:35;;;;;;;2.17;1.53;;;10.00;98.00;;;;;;5012323;28;20461;-67
2023/11/06 02:24:08;;;;;;;1.50;1.30;;;10.00;98.00;;;;;;5012303;28;20489;-67
2023/11/06 02:26:34;;;;;;;3.53;1.50;;;10.00;98.00;;;;;;5012459;28;20460;-67
2023/11/06 02:29:03;;;;;;;4.10;1.50;;;10.00;98.00;;;;;;5012214;28;20452;-67
2023/11/06 02:31:30;;;;;;;3.30;1.30;;;9.90;98.00;;;;;;5011783;28;20494;-67
2023/11/06 02:33:57;;;;;;;1.20;1.10;;;9.90;98.00;;;;;;5012256;28;20487;-67
2023/11/06 02:36:24;;;;;;;1.90;1.40;;;9.90;98.00;;;;;;5012330;28;20511;-67
2023/11/06 02:38:51;;;;;;;1.50;1.27;;;9.90;98.00;;;;;;5012136;28;20517;-67
2023/11/06 02:41:20;;;;;;;2.90;1.50;;;9.90;98.00;;;;;;5010915;28;20473;-67
2023/11/06 02:43:47;;;;;;;5.20;1.20;;;9.90;98.00;;;;;;5012624;28;20459;-67
2023/11/06 02:46:14;;;;;;;2.47;1.60;;;9.80;98.00;;;;;;5012421;28;20510;-67
2023/11/06 02:48:41;;;;;;;2.53;1.20;;;9.80;98.00;;;;;;5012182;28;20466;-67
2023/11/06 02:51:08;;;;;;;2.43;1.20;;;9.90;98.00;;;;;;5012048;28;20850;-67
2023/11/06 02:53:35;;;;;;;1.67;1.30;;;9.90;98.00;;;;;;5012143;28;20467;-67
2023/11/06 02:56:02;;;;;;;2.03;1.23;;;9.90;98.00;;;;;;5012300;28;20489;-67
2023/11/06 02:58:31;;;;;;;3.47;1.67;;;9.90;98.00;;;;;;5012074;28;20463;-67
2023/11/06 03:00:58;;;;;;;1.90;1.20;;;9.90;98.00;;;;;;5012197;28;20451;-67
2023/11/06 03:03:27;;;;;;;1.30;1.20;;;9.90;98.00;;;;;;5012300;28;20459;-67
2023/11/06 03:05:54;;;;;;;1.97;1.20;;;9.90;98.00;;;;;;5012302;28;20459;-67
2023/11/06 03:08:22;;;;;;;2.13;1.30;;;9.90;98.00;;;;;;5011802;28;20812;-67
2023/11/06 03:10:51;;;;;;;5.13;1.50;;;9.80;98.00;;;;;;5012071;28;20513;-67
2023/11/06 03:13:19;;;;;;;4.80;1.30;;;9.80;98.00;;;;;;5011774;28;20458;-67
2023/11/06 03:15:47;;;;;;;3.13;1.43;;;9.80;98.00;;;;;;5011663;28;21070;-67
2023/11/06 03:18:14;;;;;;;4.30;1.33;;;9.80;98.00;;;;;;5011784;28;20551;-67
2023/11/06 03:20:43;;;;;;;1.87;1.30;;;9.80;98.00;;;;;;5011792;28;20458;-67
2023/11/06 03:23:10;;;;;;;1.73;1.20;;;9.80;98.00;;;;;;5011453;28;20449;-67
2023/11/06 03:25:37;;;;;;;1.60;1.50;;;9.70;98.00;;;;;;5011618;28;20570;-67
2023/11/06 03:28:04;;;;;;;1.57;1.27;;;9.70;98.00;;;;;;5011420;28;20452;-67
2023/11/06 03:30:31;;;;;;;2.70;1.23;;;9.80;98.00;;;;;;5011389;28;20460;-67
2023/11/06 03:32:59;;;;;;;2.00;1.53;;;9.70;98.00;;;;;;5011438;28;20457;-67
2023/11/06 03:35:26;;;;;;;2.30;1.23;;;9.80;98.00;;;;;;5011387;28;20487;-67
2023/11/06 03:37:53;;;;;;;3.30;1.40;;;9.80;98.00;;;;;;5011552;28;20459;-67
2023/11/06 03:40:21;;;;;;;2.83;1.00;;;9.80;98.00;;;;;;5011383;28;21004;-67
2023/11/06 03:42:48;;;;;;;2.17;1.30;;;9.80;98.00;;;;;;5012888;28;20491;-67
2023/11/06 03:45:16;;;;;;;1.40;1.10;;;9.90;98.00;;;;;;5015100;28;20463;-67
2023/11/06 03:47:43;;;;;;;1.70;1.20;;;9.90;98.00;;;;;;5015410;28;20458;-67
2023/11/06 03:50:12;;;;;;;2.70;1.30;;;9.90;98.00;;;;;;5015020;28;20456;-67
2023/11/06 03:52:39;;;;;;;2.00;1.30;;;9.90;98.00;;;;;;5015243;28;20454;-67
2023/11/06 03:55:07;;;;;;;2.03;1.30;;;9.90;98.00;;;;;;5015085;28;20487;-67
2023/11/06 03:57:34;;;;;;;1.40;1.20;;;10.10;98.00;;;;;;5015108;28;20819;-67
2023/11/06 04:00:03;;;;;;;1.97;1.23;;;10.10;98.00;;;;;;5015266;28;20451;-67
2023/11/06 04:02:30;;;;;;;2.07;1.20;;;10.10;98.00;;;;;;5015171;28;20466;-67
2023/11/06 04:04:57;;;;;;;4.10;1.30;;;10.10;98.00;;;;;;5014992;28;20469;-67
2023/11/06 04:07:25;;;;;;;3.23;1.43;;;10.10;98.00;;;;;;4997481;28;20939;-67
2023/11/06 04:09:54;;;;;;;1.40;1.27;;;10.10;98.00;;;;;;5014753;28;20483;-67
2023/11/06 04:12:22;;;;;;;3.70;1.37;;;10.20;98.00;;;;;;5014979;28;20455;-67
2023/11/06 04:14:49;;;;;;;1.73;1.30;;;10.20;98.00;;;;;;5014664;28;20549;-67
2023/11/06 04:17:16;;;;;;;2.47;1.20;;;10.30;98.00;;;;;;5013588;28;20846;-67
2023/11/06 04:19:47;;;;;;;1.30;1.10;;;10.30;98.00;;;;;;5014552;28;20457;-67
2023/11/06 04:22:15;;;;;;;4.03;1.40;;;10.40;98.00;;;;;;5014875;28;20456;-67
2023/11/06 04:24:43;;;;;;;2.43;1.20;;;10.30;98.00;;;;;;5014817;28;20463;-67
2023/11/06 04:27:10;;;;;;;1.30;1.10;;;10.30;98.00;;;;;;5014601;28;20451;-67
2023/11/06 04:29:37;;;;;;;1.40;1.17;;;10.30;98.00;;;;;;5014288;28;20471;-67
2023/11/06 04:32:05;;;;;;;5.53;1.60;;;10.40;98.00;;;;;;5014877;28;20609;-67
2023/11/06 04:34:32;;;;;;;5.47;1.23;;;10.40;98.00;;;;;;5014493;28;20448;-67
2023/11/06 04:36:59;;;;;;;1.30;1.30;;;10.50;98.00;;;;;;5014443;28;20456;-67
2023/11/06 04:39:26;;;;;;;3.90;1.30;;;10.40;98.00;;;;;;5014086;28;20468;-67
2023/11/06 04:41:54;;;;;;;3.00;1.40;;;10.40;98.00;;;;;;5014573;28;20453;-67
2023/11/06 04:44:21;;;;;;;1.77;1.20;;;10.50;98.00;;;;;;5014573;28;20457;-67
2023/11/06 04:46:48;;;;;;;2.00;1.27;;;10.50;98.00;;;;;;5014291;28;20453;-67
2023/11/06 04:49:15;;;;;;;3.30;1.40;;;10.60;98.00;;;;;;5013885;28;20826;-67
2023/11/06 04:51:43;;;;;;;1.90;1.33;;;10.60;98.00;;;;;;5014287;28;20454;-67
2023/11/06 04:54:10;;;;;;;10.20;1.37;;;10.50;98.00;;;;;;5011865;28;21035;-67
2023/11/06 04:56:42;;;;;;;2.47;1.20;;;10.50;98.00;;;;;;5013735;28;20491;-67
2023/11/06 04:59:11;;;;;;;1.97;1.10;;;10.40;98.00;;;;;;5014002;28;20483;-67
2023/11/06 05:01:38;;;;;;;1.20;1.13;;;10.40;98.00;;;;;;5014012;28;20457;-67
2023/11/06 05:04:05;;;;;;;2.20;1.40;;;10.40;98.00;;;;;;5013881;28;20455;-67
2023/11/06 05:06:32;;;;;;;1.40;1.10;;;10.40;98.00;;;;;;5013660;28;20831;-67
2023/11/06 05:09:00;;;;;;;1.63;1.20;;;10.40;98.00;;;;;;5013863;28;20520;-67
2023/11/06 05:11:27;;;;;;;4.70;1.40;;;10.40;98.00;;;;;;5013573;28;20526;-67
2023/11/06 05:13:54;;;;;;;3.43;1.10;;;10.40;98.00;;;;;;5013630;28;20455;-67
2023/11/06 05:16:23;;;;;;;1.30;1.10;;;10.30;98.00;;;;;;5013565;28;20486;-67
2023/11/06 05:18:50;;;;;;;1.60;1.20;;;10.40;98.00;;;;;;5013630;28;20459;-67
2023/11/06 05:21:23;;;;;;;1.57;1.20;;;10.30;98.00;;;;;;5013511;28;20459;-67
2023/11/06 05:23:51;;;;;;;1.40;1.10;;;10.20;98.00;;;;;;5013352;28;20455;-67
2023/11/06 05:26:19;;;;;;;1.83;1.20;;;10.30;98.00;;;;;;5013677;28;20865;-66
2023/11/06 05:28:46;;;;;;;1.93;1.10;;;10.30;98.00;;;;;;5013433;28;20452;-66
2023/11/06 05:31:14;;;;;;;1.20;1.00;;;10.20;98.00;;;;;;5013195;28;20498;-67
2023/11/06 05:33:43;;;;;;;1.50;1.20;;;10.20;98.00;;;;;;5013454;28;21201;-67
2023/11/06 05:36:14;;;;;;;2.37;1.20;;;10.20;98.00;;;;;;5013377;28;20491;-67
2023/11/06 05:38:41;;;;;;;2.00;1.20;;;10.30;98.00;;;;;;5013079;28;20556;-67
2023/11/06 05:41:11;;;;;;;2.73;1.10;;;10.20;98.00;;;;;;5013135;28;20550;-67
2023/11/06 05:43:38;;;;;;;1.30;1.00;;;10.20;98.00;;;;;;5013097;28;20547;-67
2023/11/06 05:46:06;;;;;;;3.20;1.30;;;10.30;98.00;;;;;;5013017;28;21077;-67
2023/11/06 05:48:33;;;;;;;1.60;1.17;;;10.30;98.00;;;;;;5013061;28;20459;-67
2023/11/06 05:51:02;;;;;;;2.60;1.27;;;10.30;98.00;;;;;;5013051;28;20474;-67
2023/11/06 05:53:29;;;;;;;1.50;1.20;;;10.30;98.00;;;;;;5012979;28;20447;-67
2023/11/06 05:55:57;;;;;;;1.20;1.17;;;10.30;98.00;;;;;;5013017;28;20472;-67
2023/11/06 05:58:24;;;;;;;3.23;1.30;;;10.30;98.00;;;;;;5012887;28;20958;-67
2023/11/06 06:00:54;;;;;;;4.20;1.43;;;10.40;98.00;;;;;;5012931;28;20529;-67
2023/11/06 06:03:21;;;;;;;1.40;1.17;;;10.40;98.00;;;;;;5012212;28;20491;-67
2023/11/06 06:05:48;;;;;;;2.80;1.10;;;10.40;98.00;;;;;;5011277;28;20566;-67
2023/11/06 06:08:17;;;;;;;1.80;1.27;;;10.40;98.00;;;;;;5011944;28;20482;-67
2023/11/06 06:10:44;;;;;;;1.20;1.03;;;10.40;98.00;;;;;;5011917;28;20551;-67
2023/11/06 06:13:12;;;;;;;1.87;1.30;;;10.40;98.00;;;;;;5012882;28;20452;-66
2023/11/06 06:15:39;;;;;;;4.00;1.30;;;10.30;98.00;;;;;;5012543;28;20486;-67
2023/11/06 06:18:06;;;;;;;1.20;1.03;;;10.30;98.00;;;;;;5012736;28;20456;-67
2023/11/06 06:20:33;;;;;;;5.90;1.37;;;10.20;98.00;;;;;;5012529;28;20505;-67
2023/11/06 06:23:00;;;;;;;3.00;1.40;;;10.20;98.00;;;;;;5012913;28;20470;-67
2023/11/06 06:25:29;;;;;;;1.83;1.13;;;10.20;98.00;;;;;;5012492;28;20473;-67
2023/11/06 06:27:56;;;;;;;2.00;1.40;;;10.10;98.00;;;;;;5012369;28;20457;-67
2023/11/06 06:30:25;;;;;;;1.30;1.20;;;10.10;98.00;;;;;;5012412;28;20503;-67
2023/11/06 06:32:52;;;;;;;1.67;1.10;;;10.00;98.00;;;;;;5012263;28;20473;-67
2023/11/06 06:35:19;;;;;;;1.93;1.20;;;10.10;98.00;;;;;;5012315;28;20519;-67
2023/11/06 06:37:46;;;;;;;1.47;1.20;;;10.20;98.00;;;;;;5011183;28;20949;-67
2023/11/06 06:40:14;;;;;;;1.53;1.10;;;10.20;98.00;;;;;;5012139;28;20476;-67
2023/11/06 06:42:42;;;;;;;2.60;1.30;;;10.20;98.00;;;;;;5011070;28;20446;-67
2023/11/06 06:45:10;;;;;;;2.27;1.20;;;10.20;98.00;;;;;;5012200;28;20464;-67
2023/11/06 06:47:37;;;;;;;1.50;1.17;;;10.20;98.00;;;;;;5011180;28;20470;-67
2023/11/06 06:50:06;;;;;;;1.27;1.10;;;10.20;98.00;;;;;;5012186;28;20506;-67
2023/11/06 06:52:33;;;;;;;1.30;1.10;;;10.10;98.00;;;;;;5012091;28;20505;-67
2023/11/06 06:55:01;;;;;;;7.13;1.30;;;10.10;98.00;;;;;;5011974;28;20952;-67
2023/11/06 06:57:29;;;;;;;1.50;1.30;;;10.00;98.00;;;;;;5012515;28;20491;-67
2023/11/06 06:59:57;;;;;;;2.20;1.27;;;10.10;98.00;;;;;;5012049;28;20464;-62
2023/11/06 07:02:24;;;;;;;1.37;1.20;;;10.00;98.00;;;;;;5012436;28;20825;-62
2023/11/06 07:04:51;;;;;;;1.67;1.17;;;10.20;98.00;;;;;;5012228;28;20470;-62
2023/11/06 07:07:18;;;;;;;1.30;1.20;;;10.20;98.00;;;;;;5010758;28;20451;-62
2023/11/06 07:09:45;;;;;;;1.77;1.30;;;10.20;98.00;;;;;;5011929;28;20524;-62
2023/11/06 07:12:14;;;;;;;1.30;1.20;;;10.20;98.00;;;;;;5012182;28;20956;-62
2023/11/06 07:14:41;;;;;;;1.97;1.50;;;10.20;98.00;;;;;;5012072;28;20452;-62
2023/11/06 07:17:09;;;;;;;1.77;1.37;;;10.20;98.00;;;;;;5012363;28;20576;-62
2023/11/06 07:19:37;;;;;;;2.40;1.40;;;10.20;98.00;;;;;;5015883;28;20448;-62
2023/11/06 07:22:04;;;;;;;2.27;1.43;;;10.20;98.00;;;;;;5015884;28;20517;-62
2023/11/06 07:24:31;;;;;;;2.60;1.60;;;10.20;98.00;;;;;;5015908;28;20447;-62
2023/11/06 07:26:58;;;;;;;1.40;1.13;;;10.30;98.00;;;;;;5015793;28;20455;-62
2023/11/06 07:29:26;;;;;;;1.73;1.50;;;10.30;98.00;;;;;;5015605;28;20461;-62
2023/11/06 07:31:53;;;;;;;1.20;1.10;;;10.30;98.00;;;;;;5015909;28;20459;-62
2023/11/06 07:34:22;;;;;;;2.33;1.57;;;10.30;98.00;;;;;;5015728;28;20455;-62
2023/11/06 07:36:49;;;;;;;2.33;1.37;;;10.20;98.00;;;;;;5015382;28;20490;-62
2023/11/06 07:39:17;;;;;;;1.50;1.20;;;10.30;98.00;;;;;;5015557;28;20455;-62
2023/11/06 07:41:44;;;;;;;1.97;1.30;;;10.30;98.00;;;;;;5015531;28;20460;-62
2023/11/06 07:44:12;;;;;;;1.40;1.17;;;10.40;98.00;;;;;;5015599;28;20450;-62
2023/11/06 07:46:39;;;;;;;2.13;1.30;;;10.40;98.00;;;;;;5015623;28;20466;-62
2023/11/06 07:49:06;;;;;;;2.57;1.43;;;10.40;98.00;;;;;;5015648;28;20454;-62
2023/11/06 07:51:35;;;;;;;1.73;1.50;;;10.40;98.00;;;;;;5014117;28;20443;-62
2023/11/06 07:54:02;;;;;;;5.73;1.60;;;10.50;98.00;;;;;;5015295;28;20458;-62
2023/11/06 07:56:29;;;;;;;2.10;1.33;;;10.40;98.00;;;;;;5015534;28;20482;-62
2023/11/06 07:58:56;;;;;;;1.50;1.20;;;10.50;98.00;;;;;;5015174;28;20505;-62
2023/11/06 08:01:23;;;;;;;3.07;1.30;;;10.60;98.00;;;;;;5015326;28;20818;-62
2023/11/06 08:03:50;;;;;;;5.53;1.60;;;10.60;98.00;;;;;;5015532;28;20462;-62
2023/11/06 08:06:17;;;;;;;1.40;1.30;;;10.60;98.00;;;;;;5015359;28;20951;-62
2023/11/06 08:08:46;;;;;;;1.30;1.10;;;10.70;98.00;;;;;;5013901;28;20477;-62
2023/11/06 08:11:14;;;;;;;3.33;1.50;;;10.80;98.00;;;;;;5015400;28;20454;-62
2023/11/06 08:13:41;;;;;;;3.17;1.40;;;10.80;98.00;;;;;;5014893;28;20980;-62
2023/11/06 08:16:09;;;;;;;1.60;1.30;;;10.90;98.00;;;;;;5014716;28;20488;-62
2023/11/06 08:18:37;;;;;;;1.40;1.23;;;10.90;98.00;;;;;;5014984;28;20452;-62
2023/11/06 08:21:04;;;;;;;2.30;1.53;;;11.00;98.00;;;;;;5014978;28;20458;-62
2023/11/06 08:23:32;;;;;;;4.90;1.30;;;10.90;98.00;;;;;;5014741;28;20452;-62
2023/11/06 08:26:00;;;;;;;2.83;1.20;;;11.00;98.00;;;;;;5014569;28;20504;-62
2023/11/06 08:28:28;;;;;;;1.83;1.27;;;11.00;98.00;;;;;;5014568;28;20858;-62
2023/11/06 08:30:58;;;;;;;2.23;1.50;;;11.10;98.00;;;;;;5012637;28;20874;-62
2023/11/06 08:33:25;;;;;;;1.80;1.40;;;11.20;98.00;;;;;;5014716;28;20546;-62
2023/11/06 08:35:52;;;;;;;1.70;1.20;;;11.20;98.00;;;;;;5014197;28;20485;-62
2023/11/06 08:38:20;;;;;;;3.03;1.23;;;11.20;98.00;;;;;;5014376;28;20462;-63
2023/11/06 08:40:50;;;;;;;3.30;1.30;;;11.20;98.00;;;;;;5014277;28;20498;-62
2023/11/06 08:43:18;;;;;;;5.17;1.30;;;11.30;98.00;;;;;;5014394;28;20810;-61
2023/11/06 08:45:45;;;;;;;2.03;1.27;;;11.40;98.00;;;;;;5014184;28;20463;-62
2023/11/06 08:48:13;;;;;;;1.50;1.47;;;11.40;98.00;;;;;;5013263;28;21117;-62
2023/11/06 08:50:42;;;;;;;1.40;1.20;;;11.40;98.00;;;;;;5013543;28;20458;-61
2023/11/06 08:53:09;;;;;;;1.30;1.23;;;11.40;98.00;;;;;;5014201;28;20481;-62
2023/11/06 08:55:36;;;;;;;1.40;1.20;;;11.40;98.00;;;;;;5013813;28;20494;-62
2023/11/06 08:58:03;;;;;;;1.50;1.17;;;11.40;98.00;;;;;;5014064;28;21054;-61
2023/11/06 09:00:32;;;;;;;1.30;1.30;;;11.50;98.00;;;;;;5012496;28;20944;-60
2023/11/06 09:03:00;;;;;;;1.43;1.20;;;11.50;98.00;;;;;;5014203;28;20461;-61
2023/11/06 09:05:27;;;;;;;1.83;1.30;;;11.50;98.00;;;;;;5013859;28;20459;-61
2023/11/06 09:07:54;;;;;;;1.97;1.30;;;11.50;98.00;;;;;;5013888;28;20491;-61
2023/11/06 09:10:21;;;;;;;1.33;1.20;;;11.60;98.00;;;;;;5013673;28;20464;-61
2023/11/06 09:12:48;;;;;;;2.13;1.30;;;11.60;98.00;;;;;;5012707;28;20463;-61
2023/11/06 09:15:15;;;;;;;7.57;1.13;;;11.60;98.00;;;;;;5013804;28;20510;-62
2023/11/06 09:17:44;;;;;;;2.23;1.30;;;11.60;98.00;;;;;;4996600;28;20495;-62
2023/11/06 09:20:12;;;;;;;3.40;1.20;;;11.70;98.00;;;;;;5013618;28;20526;-61
2023/11/06 09:22:40;;;;;;;1.43;1.10;;;11.70;98.00;;;;;;5013686;28;20486;-62
2023/11/06 09:25:08;;;;;;;2.23;1.20;;;11.80;98.00;;;;;;5013752;28;20452;-61
2023/11/06 09:27:35;;;;;;;1.50;1.20;;;11.80;98.00;;;;;;5013401;28;20444;-63
2023/11/06 09:30:03;;;;;;;1.50;1.27;;;11.90;98.00;;;;;;5013499;28;21028;-62
2023/11/06 09:32:30;;;;;;;4.30;1.30;;;12.10;98.00;;;;;;5013544;28;20545;-62
2023/11/06 09:35:00;;;;;;;1.87;1.30;;;12.00;98.00;;;;;;5013377;28;20457;-62
2023/11/06 09:37:28;;;;;;;3.73;1.60;;;12.10;98.00;;;;;;5013414;28;20978;-61
2023/11/06 09:39:55;;;;;;;1.50;1.20;;;12.20;98.00;;;;;;5013143;28;20856;-61
2023/11/06 09:42:22;;;;;;;1.70;1.30;;;12.30;98.00;;;;;;5013394;28;20456;-61
2023/11/06 09:44:49;;;;;;;1.60;1.30;;;12.50;98.00;;;;;;5012904;28;20472;-61
2023/11/06 09:47:18;;;;;;;3.00;1.53;;;12.60;98.00;;;;;;5013098;28;20442;-61
2023/11/06 09:49:56;;;;;;;1.70;1.30;;;12.70;98.00;;;;;;5011701;28;20457;-61
2023/11/06 09:52:26;;;;;;;1.50;1.30;;;12.90;98.00;;;;;;5013216;28;20550;-61
2023/11/06 09:54:55;;;;;;;2.23;2.03;;;12.90;98.00;;;;;;5012782;28;20446;-61
2023/11/06 09:57:25;;;;;;;1.50;1.23;;;13.10;98.00;;;;;;5012845;28;20520;-61
2023/11/06 09:59:52;;;;;;;1.50;1.30;;;13.20;98.00;;;;;;5011822;28;20461;-61
2023/11/06 10:02:23;;;;;;;1.50;1.10;;;13.30;98.00;;;;;;5012781;28;20493;-61
2023/11/06 10:04:50;;;;;;;1.87;1.27;;;13.40;98.00;;;;;;5012586;28;20957;-61
2023/11/06 10:07:39;;;;;;;1.57;1.17;;;13.30;98.00;;;;;;5012710;28;20477;-61
2023/11/06 10:10:12;;;;;;;2.80;1.30;;;13.40;98.00;;;;;;5012656;28;20549;-61
2023/11/06 10:12:40;;;;;;;1.20;1.20;;;13.40;98.00;;;;;;5012544;28;20885;-63
2023/11/06 10:15:11;;;;;;;1.40;1.30;;;13.40;98.00;;;;;;5011879;28;20477;-61
2023/11/06 10:17:39;;;;;;;6.57;1.30;;;13.50;98.00;;;;;;5011751;28;20573;-61
2023/11/06 10:20:13;;;;;;;1.50;1.20;;;13.60;98.00;;;;;;5011861;28;20466;-61
2023/11/06 10:22:55;;;;;;;3.40;1.30;;;13.70;98.00;;;;;;5011784;28;20463;-61
2023/11/06 10:25:28;;;;;;;1.60;1.10;;;14.00;98.00;;;;;;5011797;28;20823;-62
2023/11/06 10:27:56;;;;;;;1.43;1.27;;;14.40;98.00;;;;;;5012487;28;20447;-61
2023/11/06 10:30:24;;;;;;;2.33;1.50;;;14.40;98.00;;;;;;5010946;28;20455;-61
2023/11/06 10:32:51;;;;;;;1.20;1.20;;;14.30;98.00;;;;;;5011155;28;20455;-61
2023/11/06 10:35:18;;;;;;;3.00;1.20;;;14.20;98.00;;;;;;5011462;28;20895;-61
2023/11/06 10:37:46;;;;;;;1.50;1.17;;;14.20;98.00;;;;;;5011502;28;20487;-61
2023/11/06 10:40:18;;;;;;;3.50;1.20;;;14.40;98.00;;;;;;5011575;28;20803;-61
2023/11/06 10:42:46;;;;;;;2.00;1.20;;;14.40;98.00;;;;;;5011108;28;20460;-61
2023/11/06 10:45:14;;;;;;;1.23;1.10;;;14.50;98.00;;;;;;5010966;28;20521;-61
2023/11/06 10:47:46;;;;;;;1.57;1.33;;;14.50;98.00;;;;;;5011403;28;20534;-61
2023/11/06 10:50:17;;;;;;;1.53;1.23;;;14.50;98.00;;;;;;5011159;28;20954;-61
2023/11/06 10:52:52;;;;;;;1.60;1.30;;;14.70;98.00;;;;;;5011157;28;20467;-61
2023/11/06 10:55:22;;;;;;;1.40;1.30;;;14.90;98.00;;;;;;5010843;28;20547;-61
2023/11/06 10:57:52;;;;;;;1.40;1.30;;;15.10;98.00;;;;;;5010851;28;20492;-61
2023/11/06 11:00:21;;;;;;;2.97;1.33;;;15.20;98.00;;;;;;5010728;28;20544;-61
2023/11/06 11:02:51;;;;;;;2.23;1.13;;;15.40;98.00;;;;;;5010807;28;20457;-61
2023/11/06 11:05:22;;;;;;;1.20;1.10;;;15.50;98.00;;;;;;5011109;28;20530;-61
2023/11/06 11:07:49;;;;;;;1.40;1.20;;;15.60;98.00;;;;;;5010769;28;20948;-61
2023/11/06 11:10:17;;;;;;;1.50;1.13;;;15.70;98.00;;;;;;5011046;28;20454;-61
2023/11/06 11:12:49;;;;;;;2.87;1.20;;;15.70;98.00;;;;;;5011183;28;20456;-61
2023/11/06 11:15:24;;;;;;;1.20;1.20;;;15.80;98.00;;;;;;5011096;28;20450;-61
2023/11/06 11:17:58;;;;;;;1.20;1.10;;;15.80;98.00;;;;;;5011076;28;20587;-61
2023/11/06 11:20:25;;;;;;;1.70;1.10;;;15.60;98.00;;;;;;5011157;28;20822;-61
2023/11/06 11:23:10;;;;;;;1.30;1.20;;;15.40;98.00;;;;;;5011283;28;20464;-61
2023/11/06 11:25:56;;;;;;;2.17;1.40;;;15.20;98.00;;;;;;5009994;28;20463;-61
2023/11/06 11:28:26;;;;;;;1.70;1.37;;;15.10;98.00;;;;;;5010264;28;20461;-61
2023/11/06 11:30:54;;;;;;;1.30;1.10;;;14.90;98.00;;;;;;5010933;28;20547;-61
2023/11/06 11:33:53;;;;;;;2.27;1.33;;;14.80;98.00;;;;;;5011039;28;20470;-61
2023/11/06 11:36:32;;;;;;;1.40;1.20;;;14.80;98.00;;;;;;5011063;28;20873;-61
2023/11/06 11:39:00;;;;;;;1.50;1.10;;;14.90;98.00;;;;;;5010481;28;20461;-61
2023/11/06 11:41:27;;;;;;;1.50;1.20;;;14.90;98.00;;;;;;5010972;28;20488;-61
2023/11/06 11:44:07;;;;;;;1.20;1.13;;;14.80;98.00;;;;;;5009845;28;20951;-61
2023/11/06 11:46:57;;;;;;;1.30;1.07;;;14.70;98.00;;;;;;5010762;28;20457;-61
2023/11/06 11:49:47;;;;;;;1.77;1.30;;;14.70;98.00;;;;;;5010778;28;20464;-61
2023/11/06 11:52:45;;;;;;;1.30;1.10;;;14.60;98.00;;;;;;5010995;28;21266;-61
2023/11/06 11:55:34;;;;;;;1.40;1.13;;;14.60;98.00;;;;;;5010973;28;20461;-61
2023/11/06 11:58:07;;;;;;;1.20;1.10;;;14.70;98.00;;;;;;5010933;28;20487;-60
2023/11/06 12:00:37;;;;;;;1.60;1.30;;;14.80;98.00;;;;;;5010612;28;20464;-61
2023/11/06 12:03:11;;;;;;;1.63;1.30;;;15.00;98.00;;;;;;5010804;28;20512;-61
2023/11/06 12:05:39;;;;;;;1.40;1.20;;;15.20;98.00;;;;;;5014192;28;20462;-60
2023/11/06 12:08:17;;;;;;;1.50;1.20;;;15.20;98.00;;;;;;5014418;28;20460;-61
2023/11/06 12:10:47;;;;;;;1.60;1.30;;;15.20;98.00;;;;;;5013138;28;20461;-61
2023/11/06 12:13:14;;;;;;;1.50;1.20;;;15.10;98.00;;;;;;5013614;28;20456;-71
2023/11/06 12:15:44;;;;;;;1.30;1.17;;;15.10;98.00;;;;;;5014327;28;20539;-61
2023/11/06 12:18:12;;;;;;;1.50;1.30;;;15.10;98.00;;;;;;5014336;28;20539;-61
2023/11/06 12:20:40;;;;;;;3.00;1.50;;;15.10;98.00;;;;;;5014016;28;20961;-61
2023/11/06 12:23:07;;;;;;;5.83;1.30;;;15.20;98.00;;;;;;5014037;28;20869;-62
2023/11/06 12:25:36;;;;;;;1.50;1.20;;;15.10;98.00;;;;;;5014474;28;20484;-61
2023/11/06 12:28:05;;;;;;;1.90;1.40;;;15.10;98.00;;;;;;5014935;28;20816;-61
2023/11/06 12:30:33;;;;;;;2.80;1.20;;;15.10;98.00;;;;;;5014248;28;20873;-61
2023/11/06 12:33:12;;;;;;;2.07;1.57;;;15.10;98.00;;;;;;5014939;28;20456;-61
2023/11/06 12:35:39;;;;;;;3.10;1.33;;;15.10;98.00;;;;;;5014128;28;20485;-62
2023/11/06 12:38:06;;;;;;;1.30;1.03;;;15.00;98.00;;;;;;5013819;28;20547;-62
2023/11/06 12:40:36;;;;;;;1.90;1.20;;;14.80;98.00;;;;;;5013643;28;20466;-62
2023/11/06 12:43:04;;;;;;;1.30;1.17;;;14.60;98.00;;;;;;5013880;28;20448;-61
2023/11/06 12:45:39;;;;;;;1.30;1.20;;;14.60;98.00;;;;;;5013824;28;20470;-61
2023/11/06 12:48:26;;;;;;;1.53;1.30;;;14.60;98.00;;;;;;5014152;28;20530;-61
2023/11/06 12:50:58;;;;;;;1.20;1.20;;;14.30;98.00;;;;;;5013145;28;20487;-61
2023/11/06 12:53:25;;;;;;;1.80;1.10;;;14.30;98.00;;;;;;5012805;28;20808;-61
2023/11/06 12:55:52;;;;;;;6.20;1.30;;;14.40;98.00;;;;;;5013434;28;20455;-61